Time;durP1;ratioP1;P1;durP2;ratioP2;P2;SDS_P1;SDS_P2;PMS_P1;PMS_P2;Temp;Humidity;BMP_temperature;BMP_pressure;BME280_temperature;BME280_humidity;BME280_pressure;Samples;Min_cycle;Max_cycle;Signal;HPM_P1;HPM_P2
2023/09/29 00:00:48;;;;;;;5.60;4.60;;;18.80;99.90;;;;;;5073749;28;20403;-76
2023/09/29 00:03:15;;;;;;;7.40;5.17;;;18.80;99.90;;;;;;5073589;28;20808;-76
2023/09/29 00:05:42;;;;;;;6.13;4.97;;;18.80;99.90;;;;;;5060690;28;20689;-77
2023/09/29 00:08:08;;;;;;;6.80;4.60;;;18.80;99.90;;;;;;5073217;28;20910;-76
2023/09/29 00:10:34;;;;;;;5.67;4.60;;;18.80;99.90;;;;;;5055557;28;20421;-76
2023/09/29 00:13:00;;;;;;;5.83;5.10;;;18.90;99.90;;;;;;5055324;28;20182;-76
2023/09/29 00:15:25;;;;;;;4.47;4.07;;;18.90;99.90;;;;;;5073156;28;20456;-77
2023/09/29 00:17:51;;;;;;;6.03;5.43;;;18.80;99.90;;;;;;5073140;28;20175;-76
2023/09/29 00:20:23;;;;;;;6.23;3.60;;;18.80;99.90;;;;;;5073231;28;20170;-76
2023/09/29 00:22:52;;;;;;;6.73;4.50;;;18.80;99.90;;;;;;5072172;28;20189;-76
2023/09/29 00:25:18;;;;;;;6.60;5.37;;;18.80;99.90;;;;;;5072861;28;20474;-76
2023/09/29 00:27:44;;;;;;;7.13;5.20;;;18.80;99.90;;;;;;5072957;28;20769;-76
2023/09/29 00:30:12;;;;;;;5.33;4.50;;;18.80;99.90;;;;;;5073041;28;20404;-76
2023/09/29 00:32:42;;;;;;;5.40;4.17;;;18.80;99.90;;;;;;5055075;28;20435;-77
2023/09/29 00:35:17;;;;;;;5.20;4.37;;;18.80;99.90;;;;;;5054770;28;20478;-76
2023/09/29 00:37:44;;;;;;;4.30;3.90;;;18.80;99.90;;;;;;5072761;28;20396;-76
2023/09/29 00:40:12;;;;;;;6.67;6.00;;;18.90;99.90;;;;;;5072932;28;20397;-77
2023/09/29 00:42:39;;;;;;;5.67;5.13;;;18.80;99.90;;;;;;5072766;28;20408;-76
2023/09/29 00:45:05;;;;;;;4.33;3.93;;;18.80;99.90;;;;;;5072684;28;20435;-76
2023/09/29 00:47:36;;;;;;;11.60;5.30;;;18.90;99.90;;;;;;5071182;28;20973;-76
2023/09/29 00:50:10;;;;;;;4.27;3.87;;;18.90;99.90;;;;;;5072678;28;20412;-76
2023/09/29 00:52:38;;;;;;;5.27;4.77;;;18.90;99.90;;;;;;5079332;28;20419;-76
2023/09/29 00:55:13;;;;;;;7.47;4.33;;;18.90;99.90;;;;;;5072451;28;20460;-77
2023/09/29 00:57:44;;;;;;;6.50;4.40;;;18.90;99.90;;;;;;5078569;28;20408;-76
2023/09/29 01:00:32;;;;;;;10.33;5.20;;;18.90;99.90;;;;;;5072514;28;20472;-76
2023/09/29 01:03:12;;;;;;;6.30;5.40;;;18.80;99.90;;;;;;5077124;28;20435;-77
2023/09/29 01:05:56;;;;;;;4.73;4.33;;;18.70;99.90;;;;;;5074361;28;20440;-77
2023/09/29 01:08:23;;;;;;;4.57;4.17;;;18.70;99.90;;;;;;5089704;28;20492;-76
2023/09/29 01:10:49;;;;;;;4.97;4.47;;;18.70;99.90;;;;;;5092311;28;20411;-76
2023/09/29 01:13:15;;;;;;;8.67;5.03;;;18.70;99.90;;;;;;5073420;28;20466;-76
2023/09/29 01:15:41;;;;;;;6.47;5.77;;;18.70;99.90;;;;;;5071968;28;20456;-76
2023/09/29 01:18:07;;;;;;;9.87;6.80;;;18.60;99.90;;;;;;5071955;28;20166;-76
2023/09/29 01:20:34;;;;;;;7.77;5.87;;;18.60;99.90;;;;;;5072237;28;20165;-76
2023/09/29 01:23:01;;;;;;;7.00;6.30;;;18.50;99.90;;;;;;5071993;28;20860;-76
2023/09/29 01:25:27;;;;;;;6.73;5.97;;;18.50;99.90;;;;;;5071841;28;20431;-77
2023/09/29 01:27:54;;;;;;;8.40;5.63;;;18.50;99.90;;;;;;5054186;28;21007;-76
2023/09/29 01:30:20;;;;;;;10.33;6.00;;;18.50;99.90;;;;;;5072056;28;20922;-76
2023/09/29 01:32:47;;;;;;;6.83;6.20;;;18.60;99.90;;;;;;5053844;28;20408;-76
2023/09/29 01:35:23;;;;;;;15.33;8.80;;;18.60;99.90;;;;;;5053383;28;20235;-77
2023/09/29 01:37:49;;;;;;;11.70;8.03;;;18.60;99.90;;;;;;5071913;28;20400;-76
2023/09/29 01:40:15;;;;;;;9.07;8.27;;;18.60;99.90;;;;;;5071922;28;20401;-76
2023/09/29 01:42:42;;;;;;;7.10;6.20;;;18.50;99.90;;;;;;5071875;28;20412;-76
2023/09/29 01:45:15;;;;;;;8.53;6.70;;;18.50;99.90;;;;;;5072025;28;20972;-76
2023/09/29 01:47:43;;;;;;;8.73;7.90;;;18.60;99.90;;;;;;5071669;28;20417;-76
2023/09/29 01:50:10;;;;;;;11.83;7.07;;;18.50;99.90;;;;;;5071890;28;20892;-76
2023/09/29 01:52:36;;;;;;;7.50;6.70;;;18.40;99.90;;;;;;5071832;28;20458;-76
2023/09/29 01:55:12;;;;;;;7.73;6.60;;;18.40;99.90;;;;;;5078838;28;20852;-76
2023/09/29 01:57:38;;;;;;;11.20;7.83;;;18.50;99.90;;;;;;5071587;28;20886;-76
2023/09/29 02:00:05;;;;;;;11.87;8.07;;;18.40;99.90;;;;;;5071914;28;20447;-77
2023/09/29 02:02:31;;;;;;;8.07;7.13;;;18.30;99.90;;;;;;5070440;28;20417;-77
2023/09/29 02:04:56;;;;;;;10.23;7.40;;;18.20;99.90;;;;;;5071617;28;20992;-76
2023/09/29 02:07:24;;;;;;;10.27;7.43;;;18.30;99.90;;;;;;5072224;28;20209;-77
2023/09/29 02:09:50;;;;;;;13.93;7.60;;;18.30;99.90;;;;;;5083401;28;20171;-76
2023/09/29 02:12:17;;;;;;;13.17;8.13;;;18.30;99.90;;;;;;5073105;28;20409;-76
2023/09/29 02:14:42;;;;;;;8.87;7.97;;;18.30;99.90;;;;;;5071281;28;20460;-76
2023/09/29 02:17:08;;;;;;;10.87;7.93;;;18.20;99.90;;;;;;5071274;28;20446;-76
2023/09/29 02:19:35;;;;;;;8.43;7.60;;;18.20;99.90;;;;;;5053549;28;20169;-76
2023/09/29 02:22:01;;;;;;;11.87;8.80;;;18.10;99.90;;;;;;5071422;28;20411;-77
2023/09/29 02:24:27;;;;;;;7.37;6.67;;;18.10;99.90;;;;;;5071367;28;20915;-76
2023/09/29 02:26:52;;;;;;;6.53;5.93;;;18.00;99.90;;;;;;5071328;28;20388;-76
2023/09/29 02:29:18;;;;;;;6.20;5.70;;;18.00;99.90;;;;;;5053419;28;20177;-76
2023/09/29 02:31:43;;;;;;;6.93;5.77;;;18.10;99.90;;;;;;5053304;28;20167;-76
2023/09/29 02:34:09;;;;;;;6.63;6.03;;;18.10;99.90;;;;;;5071277;28;20198;-76
2023/09/29 02:36:36;;;;;;;6.60;5.63;;;18.10;99.90;;;;;;5070884;28;20528;-76
2023/09/29 02:39:04;;;;;;;7.03;5.27;;;18.10;99.90;;;;;;5071328;28;20189;-77
2023/09/29 02:41:30;;;;;;;7.77;4.73;;;18.10;99.90;;;;;;5071412;28;20443;-76
2023/09/29 02:43:56;;;;;;;5.07;3.60;;;18.10;99.90;;;;;;5053372;28;20440;-77
2023/09/29 02:46:21;;;;;;;4.33;3.77;;;18.20;99.90;;;;;;5054470;28;20277;-76
2023/09/29 02:48:48;;;;;;;6.37;3.53;;;18.10;99.90;;;;;;5075055;28;20470;-76
2023/09/29 02:51:18;;;;;;;4.50;4.10;;;18.10;99.90;;;;;;5075015;28;20166;-77
2023/09/29 02:53:44;;;;;;;5.80;4.33;;;18.10;99.90;;;;;;5080743;28;20436;-77
2023/09/29 02:56:11;;;;;;;5.13;4.70;;;18.10;99.90;;;;;;5074790;28;20450;-77
2023/09/29 02:58:38;;;;;;;8.50;5.90;;;18.10;99.90;;;;;;5074774;28;20404;-76
2023/09/29 03:01:06;;;;;;;11.03;7.10;;;18.00;99.90;;;;;;5074773;28;20400;-76
2023/09/29 03:03:32;;;;;;;7.33;6.40;;;18.10;99.90;;;;;;5083479;28;20415;-77
2023/09/29 03:05:58;;;;;;;5.97;5.10;;;18.20;99.90;;;;;;5090064;28;20569;-76
2023/09/29 03:08:23;;;;;;;4.50;4.10;;;18.20;99.90;;;;;;5059858;28;20214;-76
2023/09/29 03:10:49;;;;;;;5.10;4.57;;;18.20;99.90;;;;;;5082896;28;20170;-76
2023/09/29 03:13:15;;;;;;;6.60;4.30;;;18.20;99.90;;;;;;5060754;28;20543;-76
2023/09/29 03:15:41;;;;;;;7.00;4.73;;;18.20;99.90;;;;;;5079773;28;20220;-76
2023/09/29 03:18:07;;;;;;;5.67;5.17;;;18.20;99.90;;;;;;5077354;28;20166;-77
2023/09/29 03:20:32;;;;;;;5.40;4.87;;;18.30;99.90;;;;;;5074485;28;20403;-77
2023/09/29 03:23:04;;;;;;;6.13;4.80;;;18.30;99.90;;;;;;5074373;28;20171;-76
2023/09/29 03:25:29;;;;;;;6.70;5.10;;;18.30;99.90;;;;;;5056167;28;20197;-76
2023/09/29 03:27:55;;;;;;;6.10;5.10;;;18.30;99.90;;;;;;5074538;28;20966;-76
2023/09/29 03:30:21;;;;;;;6.20;5.63;;;18.40;99.90;;;;;;5092712;28;20173;-76
2023/09/29 03:32:47;;;;;;;5.90;5.30;;;18.40;99.90;;;;;;5085766;28;20173;-76
2023/09/29 03:35:13;;;;;;;7.27;6.50;;;18.40;99.90;;;;;;5076436;28;20859;-76
2023/09/29 03:37:39;;;;;;;11.40;7.03;;;18.40;99.90;;;;;;5073930;28;20169;-76
2023/09/29 03:40:10;;;;;;;7.77;6.97;;;18.30;99.90;;;;;;5074063;28;20899;-77
2023/09/29 03:42:37;;;;;;;9.13;6.93;;;18.40;99.90;;;;;;5074071;28;20450;-75
2023/09/29 03:45:06;;;;;;;7.60;6.17;;;18.40;99.90;;;;;;5073834;28;20424;-75
2023/09/29 03:47:33;;;;;;;7.30;6.63;;;18.40;99.90;;;;;;5055781;28;20413;-75
2023/09/29 03:49:59;;;;;;;8.37;7.23;;;18.40;99.90;;;;;;5073850;28;20415;-77
2023/09/29 03:52:25;;;;;;;9.73;7.40;;;18.40;99.90;;;;;;5073928;28;20413;-77
2023/09/29 03:54:51;;;;;;;6.67;6.07;;;18.30;99.90;;;;;;5090413;28;20471;-76
2023/09/29 03:57:17;;;;;;;9.43;6.80;;;18.40;99.90;;;;;;5083781;28;20169;-76
2023/09/29 03:59:42;;;;;;;10.90;5.90;;;18.30;99.90;;;;;;5070749;28;20536;-76
2023/09/29 04:02:08;;;;;;;7.20;6.47;;;18.30;99.90;;;;;;5073698;28;20166;-76
2023/09/29 04:04:34;;;;;;;7.37;6.00;;;18.30;99.90;;;;;;5073505;28;20194;-76
2023/09/29 04:06:59;;;;;;;5.97;5.37;;;18.20;99.90;;;;;;5073466;28;20461;-76
2023/09/29 04:09:25;;;;;;;7.10;6.40;;;18.20;99.90;;;;;;5073600;28;20177;-77
2023/09/29 04:11:51;;;;;;;8.07;5.97;;;18.10;99.90;;;;;;5073463;28;20252;-76
2023/09/29 04:14:16;;;;;;;12.33;9.13;;;18.20;99.90;;;;;;5073039;28;20194;-76
2023/09/29 04:16:42;;;;;;;6.80;6.20;;;18.20;99.90;;;;;;5073099;28;20549;-76
2023/09/29 04:19:09;;;;;;;9.60;7.00;;;18.30;99.90;;;;;;5055488;28;20196;-76
2023/09/29 04:21:34;;;;;;;9.57;6.27;;;18.30;99.90;;;;;;5062998;28;20304;-76
2023/09/29 04:24:00;;;;;;;6.30;5.73;;;18.30;99.90;;;;;;5055290;28;20653;-76
2023/09/29 04:26:25;;;;;;;7.93;6.13;;;18.40;99.90;;;;;;5072766;28;20201;-76
2023/09/29 04:28:51;;;;;;;7.50;5.73;;;18.40;99.90;;;;;;5072979;28;20534;-76
2023/09/29 04:31:18;;;;;;;7.00;6.27;;;18.40;99.90;;;;;;5073203;28;20192;-76
2023/09/29 04:33:43;;;;;;;7.97;5.93;;;18.30;99.90;;;;;;5072860;28;20747;-76
2023/09/29 04:36:09;;;;;;;6.07;5.27;;;18.30;99.90;;;;;;5054738;28;20511;-76
2023/09/29 04:38:36;;;;;;;7.50;5.53;;;18.30;99.90;;;;;;5072988;28;20169;-76
2023/09/29 04:41:02;;;;;;;11.03;9.70;;;18.30;99.90;;;;;;5072879;28;20166;-77
2023/09/29 04:43:28;;;;;;;7.00;6.40;;;18.30;99.90;;;;;;5054845;28;20492;-76
2023/09/29 04:45:54;;;;;;;7.67;5.97;;;18.30;99.90;;;;;;5054459;28;20198;-76
2023/09/29 04:48:20;;;;;;;6.20;5.40;;;18.30;99.90;;;;;;5072719;28;20415;-76
2023/09/29 04:50:45;;;;;;;5.37;4.87;;;18.30;99.90;;;;;;5077214;28;20419;-76
2023/09/29 04:53:11;;;;;;;6.30;5.80;;;18.30;99.90;;;;;;5080269;28;20198;-76
2023/09/29 04:55:36;;;;;;;9.67;6.27;;;18.30;99.90;;;;;;5088867;28;20201;-76
2023/09/29 04:58:02;;;;;;;10.27;6.17;;;18.30;99.90;;;;;;5080605;28;20169;-76
2023/09/29 05:00:27;;;;;;;11.07;6.70;;;18.30;99.90;;;;;;5074514;28;20584;-77
2023/09/29 05:02:53;;;;;;;10.03;6.30;;;18.40;99.90;;;;;;5092811;28;20236;-76
2023/09/29 05:05:19;;;;;;;8.90;5.77;;;18.30;99.90;;;;;;5092680;28;20239;-76
2023/09/29 05:07:44;;;;;;;5.43;4.93;;;18.40;99.90;;;;;;5074083;28;20415;-76
2023/09/29 05:10:13;;;;;;;17.63;10.07;;;18.40;99.90;;;;;;5083578;28;20230;-76
2023/09/29 05:12:40;;;;;;;6.67;6.07;;;18.40;99.90;;;;;;5074375;28;20415;-76
2023/09/29 05:15:06;;;;;;;12.40;9.37;;;18.40;99.90;;;;;;5074358;28;20467;-76
2023/09/29 05:17:32;;;;;;;10.67;7.27;;;18.40;99.90;;;;;;5092425;28;20400;-76
2023/09/29 05:19:57;;;;;;;7.37;6.67;;;18.30;99.90;;;;;;5092504;28;20811;-76
2023/09/29 05:22:23;;;;;;;6.33;5.73;;;18.30;99.90;;;;;;5074359;28;20700;-76
2023/09/29 05:24:49;;;;;;;6.90;6.17;;;18.30;99.90;;;;;;5092061;28;20192;-77
2023/09/29 05:27:15;;;;;;;7.10;5.60;;;18.30;99.90;;;;;;5074024;28;20203;-76
2023/09/29 05:29:41;;;;;;;8.27;7.23;;;18.30;99.90;;;;;;5092417;28;20415;-76
2023/09/29 05:32:06;;;;;;;7.60;6.73;;;18.40;99.90;;;;;;5074116;28;20173;-76
2023/09/29 05:34:32;;;;;;;10.00;5.97;;;18.40;99.90;;;;;;5074213;28;20215;-76
2023/09/29 05:36:58;;;;;;;7.93;7.23;;;18.30;99.90;;;;;;5091946;28;20196;-76
2023/09/29 05:39:23;;;;;;;7.00;5.73;;;18.30;99.90;;;;;;5092164;28;20231;-76
2023/09/29 05:41:49;;;;;;;7.20;5.40;;;18.40;99.90;;;;;;5088607;28;20255;-76
2023/09/29 05:44:15;;;;;;;8.70;6.37;;;18.40;99.90;;;;;;5091594;28;20651;-76
2023/09/29 05:46:41;;;;;;;12.73;8.60;;;18.30;99.90;;;;;;5079666;28;20186;-76
2023/09/29 05:49:09;;;;;;;7.27;6.43;;;18.30;99.90;;;;;;5092111;28;20407;-76
2023/09/29 05:51:35;;;;;;;8.83;6.83;;;18.20;99.90;;;;;;5075865;28;20165;-77
2023/09/29 05:54:02;;;;;;;6.47;5.87;;;18.20;99.90;;;;;;5069478;28;20837;-77
2023/09/29 05:56:29;;;;;;;7.30;6.03;;;18.20;99.90;;;;;;5088733;28;20185;-76
2023/09/29 05:58:55;;;;;;;13.23;7.77;;;18.30;99.90;;;;;;5091624;28;20408;-76
2023/09/29 06:01:21;;;;;;;9.63;8.67;;;18.30;99.90;;;;;;5073933;28;20917;-76
2023/09/29 06:03:46;;;;;;;15.43;10.03;;;18.40;99.90;;;;;;5076646;28;20169;-77
2023/09/29 06:06:12;;;;;;;11.93;9.40;;;18.50;99.90;;;;;;5076003;28;20686;-77
2023/09/29 06:08:38;;;;;;;9.40;8.33;;;18.70;99.90;;;;;;5080640;28;20626;-77
2023/09/29 06:11:04;;;;;;;14.73;9.03;;;18.90;99.90;;;;;;5091427;28;20173;-76
2023/09/29 06:13:30;;;;;;;9.03;7.77;;;19.00;99.90;;;;;;5091563;28;20495;-76
2023/09/29 06:15:59;;;;;;;6.10;5.50;;;19.20;99.90;;;;;;5077017;28;20464;-76
2023/09/29 06:18:25;;;;;;;6.10;5.47;;;19.40;99.90;;;;;;5071483;28;20455;-76
2023/09/29 06:20:51;;;;;;;5.87;5.30;;;19.50;99.90;;;;;;5076187;28;20407;-76
2023/09/29 06:23:16;;;;;;;6.30;4.50;;;19.60;99.90;;;;;;5078550;28;20454;-76
2023/09/29 06:25:42;;;;;;;6.97;5.77;;;19.70;99.90;;;;;;5060629;28;20299;-77
2023/09/29 06:28:08;;;;;;;8.40;4.87;;;19.70;99.90;;;;;;5095570;28;20577;-76
2023/09/29 06:30:33;;;;;;;5.80;5.00;;;19.80;99.90;;;;;;5095651;28;20656;-76
2023/09/29 06:32:58;;;;;;;6.63;4.53;;;19.80;99.90;;;;;;5095573;28;20170;-76
2023/09/29 06:35:24;;;;;;;7.17;4.10;;;19.90;99.90;;;;;;5095317;28;20780;-76
2023/09/29 06:37:51;;;;;;;5.50;4.50;;;19.90;99.90;;;;;;5089925;28;20257;-76
2023/09/29 06:40:17;;;;;;;4.47;4.03;;;20.00;99.90;;;;;;5075013;28;20166;-76
2023/09/29 06:42:42;;;;;;;8.23;5.30;;;20.10;99.90;;;;;;5075024;28;20407;-77
2023/09/29 06:45:09;;;;;;;6.00;5.10;;;19.90;99.90;;;;;;5077249;28;20198;-72
2023/09/29 06:47:35;;;;;;;6.33;4.33;;;20.00;99.90;;;;;;5075319;28;20268;-71
2023/09/29 06:50:16;;;;;;;8.30;6.00;;;20.00;99.90;;;;;;5090542;28;20401;-74
2023/09/29 06:52:43;;;;;;;7.23;4.97;;;19.90;99.90;;;;;;5088531;28;20339;-72
2023/09/29 06:55:54;;;;;;;7.00;5.80;;;20.00;99.90;;;;;;5062183;28;20476;-70
2023/09/29 06:59:11;;;;;;;5.87;5.30;;;20.10;99.90;;;;;;5068080;28;20409;-70
2023/09/29 07:02:22;;;;;;;8.63;4.57;;;20.40;99.90;;;;;;5080559;28;20411;-72
2023/09/29 07:05:10;;;;;;;5.87;4.80;;;20.60;99.90;;;;;;5086230;28;20435;-71
2023/09/29 07:07:36;;;;;;;5.53;4.10;;;20.80;99.90;;;;;;5054331;28;20423;-72
2023/09/29 07:10:01;;;;;;;7.00;5.07;;;21.00;99.90;;;;;;5094858;28;20906;-71
2023/09/29 07:12:27;;;;;;;4.80;3.83;;;21.10;99.90;;;;;;5076706;28;20169;-72
2023/09/29 07:14:52;;;;;;;4.80;4.40;;;21.50;99.90;;;;;;5094588;28;20201;-71
2023/09/29 07:17:18;;;;;;;7.00;4.67;;;21.90;99.90;;;;;;5094589;28;20162;-72
2023/09/29 07:19:44;;;;;;;6.30;3.97;;;22.30;99.90;;;;;;5094719;28;20157;-71
2023/09/29 07:22:10;;;;;;;9.83;4.13;;;22.60;99.90;;;;;;5072152;28;20166;-72
2023/09/29 07:24:35;;;;;;;6.10;3.87;;;22.60;99.90;;;;;;5075207;28;20441;-71
2023/09/29 07:27:01;;;;;;;7.13;4.20;;;22.50;99.90;;;;;;5073949;28;20162;-71
2023/09/29 07:29:26;;;;;;;9.00;4.10;;;22.50;99.90;;;;;;5074269;28;20533;-73
2023/09/29 07:31:52;;;;;;;4.03;3.63;;;22.30;99.90;;;;;;5073579;28;20621;-72
2023/09/29 07:34:18;;;;;;;4.47;3.60;;;22.20;99.90;;;;;;5055973;28;20190;-72
2023/09/29 07:36:45;;;;;;;5.53;3.73;;;22.00;99.90;;;;;;5056371;28;20181;-73
2023/09/29 07:39:13;;;;;;;5.13;3.97;;;21.90;99.90;;;;;;5074146;28;20890;-73
2023/09/29 07:41:39;;;;;;;5.57;3.80;;;21.90;99.90;;;;;;5074043;28;20770;-73
2023/09/29 07:44:05;;;;;;;4.10;3.73;;;21.80;99.90;;;;;;5074030;28;20397;-73
2023/09/29 07:46:30;;;;;;;5.27;4.60;;;21.80;99.90;;;;;;5055684;28;20198;-72
2023/09/29 07:48:56;;;;;;;3.43;3.13;;;21.80;99.90;;;;;;5073814;28;20720;-71
2023/09/29 07:51:24;;;;;;;5.67;3.80;;;21.80;99.90;;;;;;5073702;28;20225;-71
2023/09/29 07:53:50;;;;;;;3.63;3.30;;;22.00;99.90;;;;;;5055670;28;20447;-71
2023/09/29 07:56:16;;;;;;;5.90;4.10;;;22.20;99.90;;;;;;5055411;28;20429;-71
2023/09/29 07:58:41;;;;;;;4.23;3.50;;;22.40;99.90;;;;;;5073654;28;20446;-71
2023/09/29 08:01:07;;;;;;;5.10;3.80;;;22.70;99.90;;;;;;5077230;28;20577;-72
2023/09/29 08:03:32;;;;;;;4.40;3.47;;;22.80;99.90;;;;;;5081656;28;20167;-75
2023/09/29 08:05:58;;;;;;;6.67;4.17;;;22.80;99.90;;;;;;5082262;28;20166;-74
2023/09/29 08:08:24;;;;;;;7.80;3.97;;;22.80;99.90;;;;;;5063319;28;20204;-74
2023/09/29 08:10:51;;;;;;;4.30;3.30;;;23.00;99.90;;;;;;5083007;28;20163;-74
2023/09/29 08:13:17;;;;;;;4.97;3.50;;;23.00;99.90;;;;;;5081233;28;20490;-74
2023/09/29 08:15:42;;;;;;;6.47;3.77;;;23.10;99.90;;;;;;5078172;28;20463;-71
2023/09/29 08:18:08;;;;;;;6.67;3.73;;;23.20;99.90;;;;;;5071990;28;20542;-72
2023/09/29 08:20:34;;;;;;;3.27;2.83;;;23.30;99.90;;;;;;5073223;28;20162;-71
2023/09/29 08:22:59;;;;;;;3.37;3.07;;;23.50;99.90;;;;;;5073176;28;20401;-72
2023/09/29 08:25:26;;;;;;;5.40;3.20;;;23.80;99.90;;;;;;5073002;28;20712;-72
2023/09/29 08:27:51;;;;;;;5.73;3.27;;;23.90;99.90;;;;;;5072932;28;20173;-73
2023/09/29 08:30:17;;;;;;;3.30;2.87;;;23.90;99.90;;;;;;5072890;28;20409;-70
2023/09/29 08:32:43;;;;;;;5.20;2.90;;;24.00;99.90;;;;;;5072946;28;20249;-70
2023/09/29 08:35:13;;;;;;;4.57;3.50;;;24.10;99.90;;;;;;5072787;28;21049;-71
2023/09/29 08:37:42;;;;;;;4.83;2.33;;;24.30;99.90;;;;;;5072967;28;20170;-72
2023/09/29 08:40:14;;;;;;;3.23;2.23;;;24.70;99.90;;;;;;5072873;28;20459;-71
2023/09/29 08:42:49;;;;;;;3.03;2.50;;;26.30;99.90;;;;;;5054616;28;20990;-73
2023/09/29 08:45:17;;;;;;;2.60;2.10;;;28.60;99.90;;;;;;5072085;28;20427;-71
2023/09/29 08:47:47;;;;;;;2.97;2.60;;;30.70;99.90;;;;;;5072651;28;20400;-71
2023/09/29 08:50:14;;;;;;;6.63;2.40;;;33.10;91.50;;;;;;5054756;28;20408;-73
2023/09/29 08:52:44;;;;;;;3.10;2.80;;;35.00;74.40;;;;;;5072532;28;20417;-72
2023/09/29 08:55:10;;;;;;;3.60;2.90;;;36.40;57.90;;;;;;5072480;28;20797;-72
2023/09/29 08:57:36;;;;;;;3.10;2.67;;;38.10;55.20;;;;;;5072387;28;20400;-74
2023/09/29 09:00:03;;;;;;;4.00;2.73;;;39.20;50.40;;;;;;5072557;28;20420;-73
2023/09/29 09:02:28;;;;;;;3.90;2.67;;;40.30;46.40;;;;;;5072442;28;20407;-73
2023/09/29 09:04:54;;;;;;;2.90;2.60;;;41.50;44.20;;;;;;5072304;28;20420;-73
2023/09/29 09:07:20;;;;;;;5.90;3.17;;;43.20;43.00;;;;;;5072222;28;20169;-73
2023/09/29 09:09:50;;;;;;;3.07;2.87;;;44.10;37.60;;;;;;5072442;28;20158;-72
2023/09/29 09:12:17;;;;;;;2.63;2.40;;;45.80;37.20;;;;;;5072090;28;20248;-72
2023/09/29 09:14:44;;;;;;;5.00;3.83;;;46.50;32.00;;;;;;5072098;28;20430;-73
2023/09/29 09:17:10;;;;;;;3.60;3.07;;;47.00;31.00;;;;;;5073187;28;20412;-74
2023/09/29 09:19:45;;;;;;;4.47;3.17;;;47.50;30.30;;;;;;5073354;28;20388;-74
2023/09/29 09:22:15;;;;;;;2.70;2.50;;;47.10;29.40;;;;;;5053925;28;20735;-73
2023/09/29 09:24:40;;;;;;;5.33;3.23;;;46.30;29.30;;;;;;5054499;28;20405;-73
2023/09/29 09:27:08;;;;;;;2.80;2.60;;;44.80;29.90;;;;;;5071912;28;20409;-72
2023/09/29 09:29:41;;;;;;;2.80;2.60;;;42.50;30.90;;;;;;5072020;28;20186;-72
2023/09/29 09:32:07;;;;;;;2.07;1.90;;;40.50;32.60;;;;;;5072125;28;20408;-72
2023/09/29 09:34:35;;;;;;;3.37;3.10;;;38.70;34.70;;;;;;5071870;28;20447;-72
2023/09/29 09:37:02;;;;;;;3.00;2.70;;;37.90;36.80;;;;;;5071656;28;20189;-71
2023/09/29 09:39:28;;;;;;;3.50;2.63;;;36.40;37.60;;;;;;5071854;28;20407;-72
2023/09/29 09:41:59;;;;;;;3.27;2.47;;;35.40;39.60;;;;;;5074302;28;20417;-72
2023/09/29 09:44:28;;;;;;;2.80;2.50;;;35.40;41.70;;;;;;5073157;28;20420;-71
2023/09/29 09:47:03;;;;;;;3.00;2.67;;;36.50;42.60;;;;;;5071608;28;20774;-72
2023/09/29 09:49:50;;;;;;;3.83;2.67;;;37.00;40.40;;;;;;5071713;28;20491;-72
2023/09/29 09:52:29;;;;;;;3.10;2.13;;;37.40;40.40;;;;;;5066910;28;20956;-72
2023/09/29 09:55:02;;;;;;;2.47;2.20;;;37.30;39.30;;;;;;5073282;28;20509;-71
2023/09/29 09:57:35;;;;;;;7.10;2.90;;;38.20;40.40;;;;;;5071393;28;20443;-72
2023/09/29 10:00:10;;;;;;;3.40;2.23;;;38.70;38.80;;;;;;5071620;28;20404;-71
2023/09/29 10:02:48;;;;;;;5.60;2.70;;;38.70;37.40;;;;;;5073647;28;20495;-71
2023/09/29 10:05:22;;;;;;;3.97;2.30;;;37.80;36.90;;;;;;5069509;28;20433;-72
2023/09/29 10:08:02;;;;;;;3.13;2.43;;;36.80;38.30;;;;;;5071404;28;20508;-72
2023/09/29 10:10:33;;;;;;;2.33;1.60;;;35.10;39.20;;;;;;5067276;28;20494;-73
2023/09/29 10:13:00;;;;;;;3.30;2.50;;;33.20;41.80;;;;;;5072461;28;20440;-70
2023/09/29 10:15:32;;;;;;;2.57;2.37;;;31.40;44.50;;;;;;5072240;28;20462;-73
2023/09/29 10:17:58;;;;;;;5.10;2.40;;;30.30;47.00;;;;;;5082744;28;20420;-71
2023/09/29 10:20:26;;;;;;;5.33;1.97;;;29.30;49.20;;;;;;5088241;28;20403;-71
2023/09/29 10:23:16;;;;;;;3.83;2.10;;;28.60;52.00;;;;;;5075605;28;20473;-71
2023/09/29 10:25:54;;;;;;;6.37;3.80;;;28.10;55.00;;;;;;5091662;28;20431;-70
2023/09/29 10:28:33;;;;;;;7.37;4.00;;;27.60;56.90;;;;;;5091678;28;20423;-71
2023/09/29 10:31:17;;;;;;;5.43;3.30;;;27.70;61.30;;;;;;5072643;28;20786;-71
2023/09/29 10:33:53;;;;;;;3.80;2.57;;;27.70;63.00;;;;;;5091589;28;20408;-71
2023/09/29 10:36:19;;;;;;;6.10;3.90;;;27.50;64.60;;;;;;5091362;28;20771;-71
2023/09/29 10:38:47;;;;;;;5.50;3.50;;;27.60;65.20;;;;;;5091740;28;20413;-70
2023/09/29 10:41:14;;;;;;;10.23;4.77;;;28.20;66.50;;;;;;5091673;28;20441;-70
2023/09/29 10:43:42;;;;;;;8.43;3.67;;;30.60;58.70;;;;;;5091716;28;20483;-71
2023/09/29 10:46:08;;;;;;;6.17;4.20;;;33.00;52.10;;;;;;5091580;28;20930;-73
2023/09/29 10:48:43;;;;;;;10.20;4.93;;;34.10;46.60;;;;;;5091505;28;20398;-72
2023/09/29 10:51:09;;;;;;;7.27;4.10;;;34.80;44.50;;;;;;5091602;28;20854;-72
2023/09/29 10:53:40;;;;;;;8.60;4.40;;;36.30;43.40;;;;;;5090096;28;20520;-73
2023/09/29 10:56:06;;;;;;;8.20;4.63;;;37.00;40.00;;;;;;5089437;28;20198;-72
2023/09/29 10:58:38;;;;;;;9.33;5.97;;;37.90;39.20;;;;;;5081454;28;20506;-72
2023/09/29 11:01:03;;;;;;;6.90;4.83;;;39.10;38.30;;;;;;5077881;28;20656;-72
2023/09/29 11:03:30;;;;;;;10.90;4.93;;;40.40;36.40;;;;;;5079448;28;20397;-72
2023/09/29 11:05:58;;;;;;;11.07;5.10;;;40.70;33.20;;;;;;5090982;28;20271;-72
2023/09/29 11:08:35;;;;;;;7.17;4.80;;;40.70;32.10;;;;;;5077820;28;20412;-72
2023/09/29 11:11:06;;;;;;;7.60;5.30;;;41.00;32.50;;;;;;5077643;28;20399;-72
2023/09/29 11:13:32;;;;;;;6.77;4.50;;;41.80;32.00;;;;;;5076052;28;20921;-72
2023/09/29 11:15:59;;;;;;;8.60;5.60;;;42.30;31.40;;;;;;5082931;28;20439;-72
2023/09/29 11:18:33;;;;;;;7.43;5.00;;;42.30;30.50;;;;;;5090760;28;20219;-72
2023/09/29 11:21:04;;;;;;;7.30;5.20;;;41.50;30.00;;;;;;5048268;28;20970;-73
2023/09/29 11:23:40;;;;;;;7.00;5.03;;;40.90;31.50;;;;;;5068547;28;20500;-71
2023/09/29 11:26:09;;;;;;;9.43;6.30;;;39.20;31.40;;;;;;5073928;28;20451;-72
2023/09/29 11:28:40;;;;;;;9.33;4.80;;;37.90;32.80;;;;;;5075089;28;20426;-72
2023/09/29 11:31:06;;;;;;;10.20;5.30;;;36.30;33.90;;;;;;5076621;28;20914;-71
2023/09/29 11:33:32;;;;;;;8.83;4.60;;;35.20;36.20;;;;;;5074639;28;20409;-72
2023/09/29 11:35:57;;;;;;;7.37;4.07;;;34.00;37.10;;;;;;5081202;28;20564;-71
2023/09/29 11:38:24;;;;;;;8.17;5.07;;;33.50;39.00;;;;;;5073955;28;20173;-71
2023/09/29 11:40:51;;;;;;;9.53;4.33;;;33.10;39.70;;;;;;5074079;28;20181;-72
2023/09/29 11:43:17;;;;;;;7.83;4.63;;;33.30;40.30;;;;;;5088926;28;20403;-70
2023/09/29 11:45:43;;;;;;;7.07;4.30;;;33.90;40.00;;;;;;5075472;28;20566;-71
2023/09/29 11:48:09;;;;;;;7.90;4.40;;;34.20;39.60;;;;;;5074010;28;20442;-73
2023/09/29 11:50:35;;;;;;;6.00;4.77;;;33.90;39.90;;;;;;5055926;28;20487;-71
2023/09/29 11:53:05;;;;;;;6.80;4.90;;;34.00;40.20;;;;;;5075210;28;20262;-72
2023/09/29 11:55:32;;;;;;;6.07;5.10;;;35.00;40.00;;;;;;5077882;28;20205;-71
2023/09/29 11:57:57;;;;;;;8.70;4.50;;;36.90;38.50;;;;;;5081931;28;20747;-71
2023/09/29 12:00:23;;;;;;;7.80;5.27;;;37.90;36.90;;;;;;5089414;28;20415;-72
2023/09/29 12:02:49;;;;;;;6.67;4.23;;;39.40;35.40;;;;;;5092358;28;20169;-71
2023/09/29 12:05:14;;;;;;;6.83;4.83;;;40.80;34.10;;;;;;5093570;28;20275;-71
2023/09/29 12:07:40;;;;;;;8.37;4.40;;;40.60;32.90;;;;;;5093406;28;20191;-71
2023/09/29 12:10:06;;;;;;;7.67;4.93;;;39.90;33.50;;;;;;5088692;28;20208;-73
2023/09/29 12:12:32;;;;;;;6.93;4.97;;;38.90;33.60;;;;;;5073462;28;20186;-73
2023/09/29 12:14:58;;;;;;;9.17;4.80;;;38.40;33.50;;;;;;5055379;28;20444;-72
2023/09/29 12:17:24;;;;;;;7.07;4.83;;;36.30;34.80;;;;;;5073014;28;20940;-72
2023/09/29 12:19:49;;;;;;;6.03;3.50;;;34.70;37.10;;;;;;5073303;28;20484;-72
2023/09/29 12:22:15;;;;;;;7.70;4.80;;;33.00;39.40;;;;;;5055217;28;20576;-71
2023/09/29 12:24:41;;;;;;;7.70;4.57;;;31.80;41.90;;;;;;5055214;28;20225;-70
2023/09/29 12:27:08;;;;;;;6.20;4.50;;;30.60;44.00;;;;;;5055219;28;20162;-71
2023/09/29 12:29:34;;;;;;;6.77;4.10;;;29.60;46.00;;;;;;5073183;28;20218;-71
2023/09/29 12:31:59;;;;;;;6.73;3.30;;;28.90;48.00;;;;;;5073222;28;20408;-71
2023/09/29 12:34:25;;;;;;;6.93;4.23;;;28.50;49.70;;;;;;5072828;28;20454;-71
2023/09/29 12:36:51;;;;;;;7.10;3.40;;;28.10;51.40;;;;;;5072965;28;20207;-70
2023/09/29 12:39:17;;;;;;;5.87;3.70;;;27.60;52.40;;;;;;5073149;28;20212;-71
2023/09/29 12:41:43;;;;;;;8.07;3.63;;;27.30;54.80;;;;;;5073085;28;20965;-70
2023/09/29 12:44:09;;;;;;;6.60;3.90;;;27.10;57.70;;;;;;5072949;28;20158;-71
2023/09/29 12:46:35;;;;;;;6.50;4.07;;;27.10;59.60;;;;;;5078953;28;20197;-71
2023/09/29 12:49:00;;;;;;;12.70;3.60;;;26.90;62.10;;;;;;5072671;28;20890;-71